Time;durP1;ratioP1;P1;durP2;ratioP2;P2;SDS_P1;SDS_P2;PMS_P1;PMS_P2;Temp;Humidity;BMP_temperature;BMP_pressure;BME280_temperature;BME280_humidity;BME280_pressure;Samples;Min_cycle;Max_cycle;Signal;HPM_P1;HPM_P2
2022/06/17 00:00:18;;;;;;;6.43;3.20;;;;;;;27.45;47.47;100941.84;5009036;28;20409;-61
2022/06/17 00:03:04;;;;;;;6.90;3.60;;;;;;;27.47;47.55;100942.22;5008339;28;20065;-61
2022/06/17 00:05:50;;;;;;;9.27;3.67;;;;;;;27.49;47.32;100942.56;5012347;28;20049;-61
2022/06/17 00:08:39;;;;;;;3.95;2.90;;;;;;;27.37;47.33;100946.75;5010863;28;20045;-62
2022/06/17 00:11:27;;;;;;;8.50;2.90;;;;;;;27.38;47.49;100950.34;5013757;28;20412;-61
2022/06/17 00:14:15;;;;;;;5.03;3.42;;;;;;;27.36;47.90;100949.97;4994196;28;20061;-61
2022/06/17 00:17:09;;;;;;;4.57;3.20;;;;;;;27.30;48.60;100940.50;5002571;28;20048;-61
2022/06/17 00:19:54;;;;;;;7.68;4.05;;;;;;;27.31;48.42;100950.44;5007033;28;20053;-62
2022/06/17 00:22:41;;;;;;;4.57;3.50;;;;;;;27.30;48.66;100946.06;5012845;28;20045;-61
2022/06/17 00:25:32;;;;;;;8.48;4.28;;;;;;;27.27;49.10;100947.72;5011082;28;20045;-60
2022/06/17 00:28:20;;;;;;;10.18;4.40;;;;;;;27.28;48.84;100948.53;5013154;28;20053;-61
2022/06/17 00:31:04;;;;;;;7.50;5.10;;;;;;;27.16;49.45;100949.91;5013777;28;20492;-61
2022/06/17 00:33:49;;;;;;;10.57;5.45;;;;;;;27.14;49.10;100955.91;5010318;28;20045;-61
2022/06/17 00:36:35;;;;;;;6.25;4.30;;;;;;;27.16;49.44;100956.28;5005505;28;20397;-61
2022/06/17 00:39:23;;;;;;;11.75;5.00;;;;;;;27.11;49.56;100945.59;5009596;28;20049;-62
2022/06/17 00:42:14;;;;;;;14.88;5.55;;;;;;;27.07;49.99;100946.84;5010102;28;20045;-61
2022/06/17 00:45:05;;;;;;;10.07;5.65;;;;;;;26.90;50.55;100945.09;5011545;28;20045;-61
2022/06/17 00:48:06;;;;;;;11.40;5.13;;;;;;;26.89;50.58;100952.69;5012848;28;20517;-61
2022/06/17 00:51:06;;;;;;;7.97;4.75;;;;;;;26.98;50.04;100941.78;5012632;28;20509;-62
2022/06/17 00:54:02;;;;;;;7.90;4.45;;;;;;;26.82;50.36;100934.00;5011945;28;20036;-61
2022/06/17 00:56:47;;;;;;;6.72;4.70;;;;;;;26.81;50.87;100943.59;5004906;28;20508;-63
2022/06/17 00:59:33;;;;;;;12.90;3.95;;;;;;;26.86;50.93;100938.75;5012564;28;20069;-61
2022/06/17 01:02:17;;;;;;;11.65;4.82;;;;;;;26.83;50.77;100937.59;5010679;28;20053;-61
2022/06/17 01:05:04;;;;;;;14.00;5.30;;;;;;;26.79;50.71;100923.69;5007212;28;20056;-61
2022/06/17 01:07:59;;;;;;;9.77;5.00;;;;;;;26.83;50.63;100918.06;5004485;28;20034;-60
2022/06/17 01:10:47;;;;;;;7.03;4.22;;;;;;;26.77;50.98;100914.94;5004407;28;20068;-60
2022/06/17 01:13:33;;;;;;;10.90;4.13;;;;;;;26.78;50.63;100915.72;5015180;28;20512;-61
2022/06/17 01:16:25;;;;;;;8.38;5.47;;;;;;;26.74;51.30;100904.63;5000654;28;20042;-60
2022/06/17 01:19:37;;;;;;;23.52;6.60;;;;;;;26.75;51.18;100914.59;5012855;28;20049;-61
2022/06/17 01:22:44;;;;;;;16.05;5.63;;;;;;;26.78;51.06;100910.94;5011742;28;20038;-60
2022/06/17 01:25:33;;;;;;;12.20;4.68;;;;;;;26.76;50.95;100912.59;5011892;28;20041;-60
2022/06/17 01:28:18;;;;;;;13.65;6.15;;;;;;;26.61;51.30;100916.78;5008853;28;20037;-61
2022/06/17 01:31:06;;;;;;;10.13;5.70;;;;;;;26.53;51.73;100913.31;5007080;28;20172;-61
2022/06/17 01:33:51;;;;;;;15.07;6.25;;;;;;;26.37;52.39;100932.63;4992783;28;20030;-61
2022/06/17 01:36:36;;;;;;;9.15;4.95;;;;;;;26.44;52.12;100932.56;4996282;28;20041;-63
2022/06/17 01:39:21;;;;;;;9.45;5.55;;;;;;;26.60;51.52;100938.31;5012182;28;20049;-62
2022/06/17 01:42:06;;;;;;;11.43;5.63;;;;;;;26.71;51.20;100936.19;5011741;28;20064;-62
2022/06/17 01:44:54;;;;;;;8.77;5.20;;;;;;;26.74;50.77;100938.13;5002151;28;20044;-62
2022/06/17 01:47:42;;;;;;;11.23;4.72;;;;;;;26.73;51.40;100930.16;5011536;28;20048;-61
2022/06/17 01:50:28;;;;;;;7.38;4.93;;;;;;;26.64;51.25;100932.69;5012026;28;20509;-61
2022/06/17 01:53:19;;;;;;;7.85;5.25;;;;;;;26.65;51.53;100939.84;5009887;28;20061;-62
2022/06/17 01:56:28;;;;;;;7.43;5.55;;;;;;;26.68;51.33;100939.00;5007795;28;20049;-61
2022/06/17 01:59:34;;;;;;;7.60;5.20;;;;;;;26.65;51.43;100937.06;5013266;28;20049;-61
2022/06/17 02:02:24;;;;;;;7.32;5.35;;;;;;;26.66;51.49;100933.06;5009645;28;20045;-60
2022/06/17 02:05:11;;;;;;;11.05;5.22;;;;;;;26.62;51.84;100929.50;5006703;28;20049;-62
2022/06/17 02:07:58;;;;;;;13.35;6.15;;;;;;;26.49;51.65;100918.13;5004433;28;20033;-61
2022/06/17 02:10:49;;;;;;;18.65;6.78;;;;;;;26.45;52.00;100909.03;5003922;28;20046;-62
2022/06/17 02:13:35;;;;;;;8.10;6.25;;;;;;;26.39;52.11;100903.13;5011749;28;20405;-61
2022/06/17 02:16:33;;;;;;;11.38;6.18;;;;;;;26.37;52.11;100902.75;5011759;28;20056;-61
2022/06/17 02:19:39;;;;;;;15.27;6.40;;;;;;;26.27;52.40;100914.84;5010863;28;20046;-61
2022/06/17 02:22:30;;;;;;;6.88;5.18;;;;;;;26.41;51.66;100908.31;5013775;28;20041;-62
2022/06/17 02:25:19;;;;;;;10.18;5.53;;;;;;;26.45;51.79;100905.44;5007552;28;20049;-61
2022/06/17 02:28:07;;;;;;;13.63;6.18;;;;;;;26.42;51.95;100909.84;5004654;28;20049;-61
2022/06/17 02:30:51;;;;;;;8.98;6.05;;;;;;;26.41;51.80;100911.09;4995365;28;20050;-63
2022/06/17 02:33:38;;;;;;;10.93;5.70;;;;;;;26.31;51.79;100921.16;4991106;28;20050;-63
2022/06/17 02:36:37;;;;;;;8.70;5.32;;;;;;;26.29;51.70;100923.59;4990837;28;20402;-63
2022/06/17 02:39:23;;;;;;;14.52;5.93;;;;;;;26.18;51.66;100922.88;5009375;28;20053;-63
2022/06/17 02:42:36;;;;;;;8.13;5.88;;;;;;;26.06;52.55;100926.19;5010525;28;20053;-62
2022/06/17 02:45:24;;;;;;;13.32;6.18;;;;;;;26.20;52.24;100914.13;5002409;28;20069;-62
2022/06/17 02:48:25;;;;;;;8.70;6.18;;;;;;;26.30;51.22;100921.59;5005623;28;20048;-62
2022/06/17 02:51:13;;;;;;;13.73;6.85;;;;;;;26.23;51.49;100908.50;5004948;28;20057;-62
2022/06/17 02:53:59;;;;;;;8.27;6.47;;;;;;;26.12;51.85;100924.53;5004194;28;20401;-63
2022/06/17 02:56:50;;;;;;;13.63;6.82;;;;;;;26.06;51.79;100912.25;5009798;28;20394;-63
2022/06/17 02:59:45;;;;;;;9.55;6.78;;;;;;;25.88;52.45;100931.19;5010144;28;20497;-63
2022/06/17 03:02:36;;;;;;;17.70;6.60;;;;;;;25.85;52.82;100932.78;4990808;28;20049;-63
2022/06/17 03:05:31;;;;;;;9.82;6.60;;;;;;;25.86;52.76;100933.59;4996163;28;20399;-63
2022/06/17 03:08:24;;;;;;;11.27;6.38;;;;;;;25.61;53.44;100933.06;5005795;28;20048;-62
2022/06/17 03:11:10;;;;;;;9.77;6.75;;;;;;;25.47;53.91;100942.31;5007967;28;20492;-63
2022/06/17 03:14:05;;;;;;;9.63;6.10;;;;;;;25.61;53.72;100950.56;5003590;28;20508;-62
2022/06/17 03:16:53;;;;;;;11.63;6.45;;;;;;;25.66;53.39;100947.31;5009843;28;20045;-63
2022/06/17 03:19:39;;;;;;;10.82;6.00;;;;;;;25.71;53.44;100946.09;5005293;28;20053;-60
2022/06/17 03:22:26;;;;;;;12.23;6.07;;;;;;;25.82;53.01;100958.72;5009202;28;20050;-61
2022/06/17 03:25:21;;;;;;;19.23;6.30;;;;;;;25.89;52.73;100961.44;5004063;28;20042;-61
2022/06/17 03:28:17;;;;;;;10.35;6.68;;;;;;;26.02;52.52;100958.91;5093982;27;20411;-61
2022/06/17 03:31:24;;;;;;;12.00;5.22;;;;;;;26.11;51.92;100967.56;5102810;28;20046;-61
2022/06/17 03:34:22;;;;;;;12.73;5.40;;;;;;;26.11;52.12;100969.59;5105982;28;20046;-61
2022/06/17 03:37:19;;;;;;;7.78;5.03;;;;;;;26.20;51.65;100970.66;5110673;28;20042;-61
2022/06/17 03:40:17;;;;;;;10.18;5.53;;;;;;;26.26;51.17;100969.00;5108051;28;20058;-61
2022/06/17 03:43:11;;;;;;;6.93;5.43;;;;;;;26.28;51.28;100972.19;5107700;28;20050;-63
2022/06/17 03:46:03;;;;;;;8.20;5.55;;;;;;;26.26;51.11;100973.81;5107968;28;20043;-62
2022/06/17 03:49:07;;;;;;;8.23;5.38;;;;;;;26.27;50.90;100967.81;5103386;28;20066;-62
2022/06/17 03:52:02;;;;;;;8.73;5.40;;;;;;;26.33;50.32;100980.09;5094499;28;20039;-62
2022/06/17 03:54:47;;;;;;;10.00;4.85;;;;;;;26.31;50.75;100971.34;5104748;28;20051;-63
2022/06/17 03:57:32;;;;;;;11.38;4.55;;;;;;;26.31;50.56;100981.72;5108268;28;20043;-62
2022/06/17 04:00:27;;;;;;;7.90;4.95;;;;;;;26.39;50.70;100984.00;5108569;28;20055;-63
2022/06/17 04:03:16;;;;;;;9.68;4.95;;;;;;;26.46;50.04;100987.94;5118283;27;20114;-62
2022/06/17 04:06:09;;;;;;;8.52;4.75;;;;;;;26.56;49.95;101003.75;5105205;28;20059;-62
2022/06/17 04:08:58;;;;;;;9.48;6.03;;;;;;;26.59;49.79;100997.31;5107170;28;20525;-60
2022/06/17 04:11:46;;;;;;;6.18;5.28;;;;;;;26.69;49.72;101002.78;5107913;28;20042;-61
2022/06/17 04:14:48;;;;;;;11.25;4.65;;;;;;;26.74;49.50;101005.09;5107544;28;20050;-61
2022/06/17 04:17:38;;;;;;;11.50;4.82;;;;;;;26.77;49.48;100997.88;5107821;28;20051;-61
2022/06/17 04:20:45;;;;;;;10.15;5.18;;;;;;;26.79;49.48;101007.41;5106946;28;20050;-61
2022/06/17 04:23:33;;;;;;;7.90;4.80;;;;;;;26.80;49.30;101008.22;5102696;28;20042;-61
2022/06/17 04:26:34;;;;;;;9.02;5.47;;;;;;;26.87;49.13;101012.94;5090846;28;20107;-62
2022/06/17 04:29:41;;;;;;;6.95;4.28;;;;;;;26.93;48.90;101012.03;5107042;28;20043;-61
2022/06/17 04:32:33;;;;;;;11.00;4.88;;;;;;;27.01;48.96;101010.75;5097095;28;20121;-62
2022/06/17 04:35:18;;;;;;;7.57;4.60;;;;;;;26.97;48.79;101012.78;5095766;28;20075;-61
2022/06/17 04:38:04;;;;;;;9.90;5.68;;;;;;;26.98;49.14;101014.34;5102197;28;20043;-61
2022/06/17 04:41:07;;;;;;;20.05;4.78;;;;;;;26.96;48.74;101005.63;5083664;28;20404;-61
2022/06/17 04:44:05;;;;;;;14.05;4.07;;;;;;;26.96;48.81;101016.81;5084976;28;20047;-62
2022/06/17 04:47:11;;;;;;;14.70;4.75;;;;;;;26.93;48.90;101016.81;5077111;28;20079;-62
2022/06/17 04:50:19;;;;;;;13.00;5.68;;;;;;;26.97;48.59;101017.59;5087151;28;20043;-61
2022/06/17 04:53:05;;;;;;;21.20;5.72;;;;;;;26.99;48.67;101015.16;5088061;28;20054;-61
2022/06/17 04:56:27;;;;;;;17.52;4.90;;;;;;;27.06;48.56;101013.06;5093735;28;20067;-62
2022/06/17 04:59:40;;;;;;;10.82;4.95;;;;;;;27.02;48.67;101017.88;5086125;28;20119;-61
2022/06/17 05:02:32;;;;;;;11.07;5.25;;;;;;;27.05;49.03;101019.84;5092759;28;20063;-61
2022/06/17 05:05:42;;;;;;;10.13;4.45;;;;;;;27.03;48.69;101033.44;5094492;28;20051;-61
2022/06/17 05:08:40;;;;;;;13.57;4.38;;;;;;;27.06;48.91;101027.03;5093247;28;20063;-61
2022/06/17 05:11:32;;;;;;;10.90;3.85;;;;;;;27.18;48.18;101020.84;5092357;28;20047;-61
2022/06/17 05:14:33;;;;;;;8.30;4.22;;;;;;;27.36;48.14;101017.00;5085161;28;20039;-62
2022/06/17 05:17:19;;;;;;;15.15;4.13;;;;;;;27.44;48.10;101019.25;5092022;28;20043;-62
2022/06/17 05:20:08;;;;;;;13.38;4.28;;;;;;;27.55;47.78;101019.91;5087951;28;20074;-62
2022/06/17 05:22:56;;;;;;;10.98;4.93;;;;;;;27.54;47.32;101015.53;5087864;28;20407;-59
2022/06/17 05:25:53;;;;;;;6.88;4.32;;;;;;;27.65;47.35;101012.56;5092918;28;20055;-61
2022/06/17 05:28:39;;;;;;;14.00;5.00;;;;;;;27.72;47.02;101006.88;5102869;22;20425;-76
2022/06/17 05:31:26;;;;;;;12.57;3.85;;;;;;;27.93;46.73;101011.31;5049836;28;20053;-77
2022/06/17 05:34:20;;;;;;;14.18;4.53;;;;;;;27.96;46.44;101016.81;5055807;28;20049;-77
2022/06/17 05:37:06;;;;;;;10.38;4.85;;;;;;;27.98;46.89;101020.00;5041014;28;20052;-77
2022/06/17 05:39:54;;;;;;;9.25;3.80;;;;;;;28.05;46.74;101014.25;5023667;28;20429;-76
2022/06/17 05:42:42;;;;;;;26.52;5.35;;;;;;;28.13;46.65;101014.16;5043054;28;20495;-76
2022/06/17 05:45:30;;;;;;;33.28;6.72;;;;;;;28.12;46.46;101009.78;5054868;28;20052;-76
2022/06/17 05:48:21;;;;;;;44.80;5.95;;;;;;;28.11;46.76;101013.75;5038271;28;20413;-77
2022/06/17 05:51:13;;;;;;;25.80;5.35;;;;;;;28.08;46.39;101013.41;5051505;28;20079;-75
2022/06/17 05:54:10;;;;;;;26.10;5.78;;;;;;;28.16;46.62;101016.09;5039713;28;20548;-78
2022/06/17 05:57:02;;;;;;;13.82;5.35;;;;;;;28.17;46.35;101020.47;5029473;28;20536;-78
2022/06/17 05:59:47;;;;;;;15.48;4.88;;;;;;;28.21;46.57;101029.56;5034740;28;20126;-78
2022/06/17 06:02:35;;;;;;;28.20;5.65;;;;;;;28.19;46.56;101026.44;5036721;28;20056;-76
2022/06/17 06:05:26;;;;;;;35.15;6.10;;;;;;;28.25;46.49;101027.50;5043327;28;20044;-78
2022/06/17 06:08:13;;;;;;;29.08;6.22;;;;;;;28.31;46.30;101039.78;5046135;28;20043;-79
2022/06/17 06:11:06;;;;;;;22.25;5.90;;;;;;;28.45;45.89;101039.50;5034264;28;20048;-78
2022/06/17 06:13:56;;;;;;;12.45;4.65;;;;;;;28.62;45.38;101046.75;5040665;28;20520;-76
2022/06/17 06:16:40;;;;;;;21.38;5.80;;;;;;;28.73;45.45;101047.34;5039114;28;20520;-78
2022/06/17 06:19:26;;;;;;;15.40;4.85;;;;;;;28.71;45.47;101052.56;5037929;28;20528;-78
2022/06/17 06:22:10;;;;;;;13.48;5.20;;;;;;;28.71;45.74;101049.75;5027953;28;20056;-78
2022/06/17 06:24:56;;;;;;;9.50;4.75;;;;;;;28.76;45.74;101046.47;5048523;28;20055;-78
2022/06/17 06:27:42;;;;;;;11.63;5.32;;;;;;;28.86;45.01;101050.28;5038224;28;20052;-80
2022/06/17 06:30:30;;;;;;;8.15;5.07;;;;;;;28.67;45.38;101049.06;5043264;28;20115;-81
2022/06/17 06:33:16;;;;;;;14.07;5.10;;;;;;;28.89;45.16;101050.22;5039954;28;20048;-79
2022/06/17 06:36:01;;;;;;;12.13;4.88;;;;;;;28.91;45.65;101049.78;5033406;28;20214;-79
2022/06/17 06:38:46;;;;;;;13.55;6.10;;;;;;;29.05;45.71;101055.09;5030782;28;20048;-79
2022/06/17 06:41:32;;;;;;;13.68;6.80;;;;;;;29.19;45.54;101057.56;5027426;28;20064;-78
2022/06/17 06:44:18;;;;;;;14.57;8.18;;;;;;;29.05;46.99;101060.69;5029582;28;20064;-81
2022/06/17 06:47:21;;;;;;;14.13;7.65;;;;;;;29.19;46.18;101070.78;5038025;28;20055;-79
2022/06/17 06:50:21;;;;;;;16.42;7.00;;;;;;;29.01;45.91;101067.56;5034092;28;20071;-81
2022/06/17 06:53:06;;;;;;;12.60;6.38;;;;;;;29.18;45.83;101066.41;5036345;28;20071;-80
2022/06/17 06:55:52;;;;;;;18.80;10.85;;;;;;;29.51;45.42;101073.66;5038093;28;20059;-80
2022/06/17 06:58:38;;;;;;;22.75;10.68;;;;;;;29.33;46.95;101078.88;5035201;28;20037;-80
2022/06/17 07:01:23;;;;;;;21.67;11.13;;;;;;;29.72;45.59;101067.53;5040833;28;20497;-80
2022/06/17 07:04:08;;;;;;;16.23;9.95;;;;;;;30.26;44.09;101071.81;5053638;28;20045;-81
2022/06/17 07:06:53;;;;;;;20.27;9.27;;;;;;;29.73;45.56;101083.13;5021950;28;20064;-81
2022/06/17 07:09:38;;;;;;;16.60;8.63;;;;;;;29.88;45.16;101074.34;5022294;28;20040;-80
2022/06/17 07:12:23;;;;;;;16.52;11.00;;;;;;;29.94;44.59;101083.84;5039207;28;20048;-80
2022/06/17 07:15:10;;;;;;;17.70;12.30;;;;;;;29.79;45.18;101088.22;5036708;28;20044;-81
2022/06/17 07:18:10;;;;;;;33.88;13.15;;;;;;;29.92;44.87;101097.56;5025543;28;20040;-80
2022/06/17 07:20:58;;;;;;;16.58;10.63;;;;;;;30.06;45.16;101094.38;5046807;28;20033;-81
2022/06/17 07:23:45;;;;;;;20.98;10.68;;;;;;;30.88;42.79;101101.38;5035969;28;20045;-81
2022/06/17 07:26:31;;;;;;;17.55;10.23;;;;;;;31.48;41.11;101104.41;5025618;28;20056;-79
2022/06/17 07:29:19;;;;;;;21.30;12.55;;;;;;;31.48;41.50;101110.03;5036327;28;20037;-78
2022/06/17 07:32:04;;;;;;;31.33;11.85;;;;;;;32.31;38.87;101104.88;5049579;28;20059;-78
2022/06/17 07:34:49;;;;;;;26.33;12.10;;;;;;;32.43;38.33;101108.91;5054809;28;20041;-80
2022/06/17 07:40:39;;;;;;;24.60;13.73;;;;;;;32.96;36.76;101112.63;5041605;28;20052;-79
2022/06/17 07:43:23;;;;;;;17.05;11.68;;;;;;;34.59;34.27;101108.81;5039147;28;20041;-80
2022/06/17 07:46:10;;;;;;;15.57;10.18;;;;;;;36.28;31.05;101108.34;5044396;28;20052;-80
2022/06/17 07:48:55;;;;;;;16.95;11.07;;;;;;;37.39;29.43;101111.69;5029360;28;20401;-80
2022/06/17 07:51:40;;;;;;;18.33;10.32;;;;;;;38.07;28.23;101120.78;5039507;28;20045;-81
2022/06/17 07:54:25;;;;;;;21.77;9.82;;;;;;;37.87;27.74;101113.00;5037628;28;20520;-80
2022/06/17 07:57:12;;;;;;;19.88;10.85;;;;;;;39.36;25.52;101120.13;5035875;28;20516;-80
2022/06/17 07:59:56;;;;;;;29.52;10.18;;;;;;;39.18;25.56;101115.53;5032670;28;20044;-80
2022/06/17 08:02:41;;;;;;;12.15;8.82;;;;;;;38.75;26.78;101118.25;5017593;28;20067;-80
2022/06/17 08:05:27;;;;;;;36.55;10.60;;;;;;;39.11;25.99;101113.19;5032574;28;20104;-80
2022/06/17 08:17:21;;;;;;;13.43;9.02;;;;;;;42.81;21.63;101104.06;5799204;23;20773;-76
2022/06/17 08:20:28;;;;;;;13.27;8.13;;;;;;;40.63;24.24;101100.09;4950984;23;20055;-77
2022/06/17 08:23:14;;;;;;;15.80;8.20;;;;;;;39.99;24.74;101098.78;4941465;28;20055;-88
2022/06/17 08:26:00;;;;;;;17.75;9.10;;;;;;;41.18;23.48;101101.47;4941637;29;20051;-77
2022/06/17 08:28:45;;;;;;;22.95;7.85;;;;;;;44.22;20.12;101105.00;4957301;28;20051;-79
2022/06/17 08:34:24;;;;;;;12.40;6.07;;;;;;;40.86;23.38;101095.19;4917345;29;20086;-83
2022/06/17 08:37:13;;;;;;;9.70;6.72;;;;;;;42.97;21.11;101102.38;4935782;29;20440;-79
2022/06/17 08:39:59;;;;;;;15.57;7.22;;;;;;;43.02;21.02;101102.34;4932267;29;20043;-79
2022/06/17 08:43:19;;;;;;;16.63;6.47;;;;;;;43.11;19.91;101106.19;4942246;28;20055;-79
2022/06/17 08:46:32;;;;;;;14.57;6.60;;;;;;;44.10;19.66;101110.09;4948083;28;20042;-81
2022/06/17 08:49:43;;;;;;;16.73;6.38;;;;;;;42.47;21.29;101097.72;4933285;29;20067;-81
2022/06/17 08:52:56;;;;;;;10.80;7.10;;;;;;;40.78;22.79;101099.88;4936893;28;20523;-80
2022/06/17 08:55:50;;;;;;;13.52;8.35;;;;;;;43.36;19.72;101099.19;4937228;29;20042;-81
2022/06/17 08:58:36;;;;;;;21.02;6.03;;;;;;;44.03;19.43;101095.63;4937124;28;20047;-79
2022/06/17 09:01:37;;;;;;;20.25;7.90;;;;;;;40.91;22.41;101098.06;4944876;28;20420;-79
2022/06/17 09:04:27;;;;;;;8.10;5.32;;;;;;;45.50;17.91;101114.53;4931008;29;20046;-79
2022/06/17 09:07:23;;;;;;;16.05;6.35;;;;;;;45.36;17.61;101110.09;4938452;28;20070;-77
2022/06/17 09:10:40;;;;;;;18.48;6.85;;;;;;;38.73;25.43;101097.25;4922429;29;20428;-79
2022/06/17 09:13:46;;;;;;;12.23;6.38;;;;;;;36.23;29.73;101094.88;4926765;29;20055;-82
2022/06/17 09:16:34;;;;;;;10.75;5.43;;;;;;;35.82;30.61;101081.59;4938202;28;20043;-79
2022/06/17 09:19:26;;;;;;;10.02;5.82;;;;;;;36.32;30.08;101079.88;4936113;29;20047;-79
2022/06/17 09:22:11;;;;;;;10.18;5.82;;;;;;;39.32;25.88;101080.47;4932762;29;20047;-76
2022/06/17 09:25:05;;;;;;;80.72;7.97;;;;;;;39.37;25.75;101085.44;4939431;28;20043;-74
2022/06/17 09:27:55;;;;;;;16.20;5.10;;;;;;;37.50;27.35;101081.44;4932832;29;20047;-74
2022/06/17 09:30:50;;;;;;;15.18;5.65;;;;;;;36.12;29.20;101085.31;4923891;29;20093;-78
2022/06/17 09:33:40;;;;;;;;;;;;;;;35.39;30.18;101069.56;4919426;29;20507;-76
2022/06/17 09:36:39;;;;;;;10.48;4.90;;;;;;;34.79;31.28;101068.78;4921780;29;19915;-76
2022/06/17 09:39:33;;;;;;;15.73;6.10;;;;;;;34.54;31.91;101065.00;4927946;29;20082;-74
2022/06/17 09:42:32;;;;;;;10.30;4.85;;;;;;;34.15;32.43;101068.75;4931035;29;20042;-77
2022/06/17 09:45:28;;;;;;;8.13;5.43;;;;;;;34.20;32.41;101065.31;4933708;29;20059;-75
2022/06/17 09:48:42;;;;;;;12.05;5.28;;;;;;;33.93;32.50;101078.13;4933208;29;20132;-77
2022/06/17 09:51:33;;;;;;;12.32;6.03;;;;;;;33.90;32.40;101083.94;4924388;29;20524;-77
2022/06/17 09:54:35;;;;;;;14.68;4.88;;;;;;;33.78;33.34;101079.97;4924537;29;20051;-76
2022/06/17 09:57:43;;;;;;;10.00;3.72;;;;;;;33.80;34.08;101083.13;4934986;29;20224;-75
2022/06/17 10:00:36;;;;;;;4.78;4.03;;;;;;;33.65;32.92;101070.03;4939317;29;20421;-74
2022/06/17 10:03:26;;;;;;;14.50;5.13;;;;;;;33.77;32.68;101075.63;4922978;29;20050;-75
2022/06/17 10:06:16;;;;;;;37.80;5.88;;;;;;;33.66;32.86;101075.22;4942151;28;20066;-74
2022/06/17 10:09:16;;;;;;;15.63;4.68;;;;;;;33.74;33.23;101079.34;4929579;29;20436;-75
2022/06/17 10:12:14;;;;;;;13.70;4.47;;;;;;;33.62;33.84;101085.88;4928131;29;20524;-74
2022/06/17 10:15:28;;;;;;;10.63;5.20;;;;;;;33.66;33.44;101078.06;4936300;29;20047;-75
2022/06/17 10:18:33;;;;;;;10.15;4.63;;;;;;;33.66;32.98;101083.69;4941516;29;20059;-74
2022/06/17 10:21:32;;;;;;;8.10;4.05;;;;;;;33.70;33.44;101070.25;4937639;29;20518;-74
2022/06/17 10:24:37;;;;;;;10.15;4.10;;;;;;;33.69;34.00;101077.13;4934379;29;20054;-75
2022/06/17 10:27:59;;;;;;;10.48;4.95;;;;;;;33.48;33.58;101080.78;4934880;29;20502;-74
2022/06/17 10:30:59;;;;;;;6.18;4.03;;;;;;;33.52;33.41;101081.47;4926965;29;20051;-75
2022/06/17 10:33:45;;;;;;;26.58;5.32;;;;;;;33.63;33.13;101072.53;4936509;28;20050;-75
2022/06/17 10:36:31;;;;;;;9.77;4.10;;;;;;;33.71;32.60;101069.00;4934341;29;20058;-74
2022/06/17 10:39:18;;;;;;;8.35;3.92;;;;;;;33.73;32.27;101068.56;4934582;29;20417;-75
2022/06/17 10:42:07;;;;;;;12.98;4.63;;;;;;;33.78;32.66;101056.66;4938171;28;20046;-75
2022/06/17 10:44:56;;;;;;;8.95;3.58;;;;;;;33.75;32.64;101061.16;4933894;29;20531;-76
2022/06/17 10:47:53;;;;;;;9.07;5.10;;;;;;;33.89;31.79;101056.97;4931827;29;20050;-75
2022/06/17 10:50:38;;;;;;;10.55;4.03;;;;;;;33.92;31.82;101050.38;4934887;28;20400;-76
2022/06/17 10:53:46;;;;;;;7.03;4.22;;;;;;;33.87;31.84;101060.25;4933723;29;20046;-74
2022/06/17 10:56:40;;;;;;;7.57;4.00;;;;;;;33.85;32.27;101047.84;4931149;29;20416;-75
2022/06/17 10:59:32;;;;;;;9.13;4.22;;;;;;;33.64;31.80;101055.16;4930736;29;20043;-74
2022/06/17 11:02:29;;;;;;;9.45;3.92;;;;;;;33.81;32.31;101056.50;4932827;29;20519;-79
2022/06/17 11:05:29;;;;;;;8.02;4.97;;;;;;;33.88;31.76;101052.59;4935466;29;20531;-74
2022/06/17 11:08:21;;;;;;;24.05;7.45;;;;;;;33.89;31.53;101054.13;4933466;29;20519;-76
2022/06/17 11:14:23;;;;;;;16.42;5.70;;;;;;;33.91;31.56;101054.47;4933483;29;20066;-75
2022/06/17 11:17:18;;;;;;;13.23;4.93;;;;;;;33.96;31.36;101053.84;4930189;29;20047;-76
2022/06/17 11:20:27;;;;;;;8.02;4.22;;;;;;;33.95;31.46;101040.97;4931042;29;20047;-75
2022/06/17 11:23:22;;;;;;;13.27;4.57;;;;;;;33.97;32.06;101040.50;4941540;28;20543;-77
2022/06/17 11:26:17;;;;;;;9.52;4.15;;;;;;;34.03;32.53;101038.66;4943510;28;20051;-75
2022/06/17 11:29:20;;;;;;;9.68;4.90;;;;;;;34.01;31.78;101039.09;4931456;29;20524;-76
2022/06/17 11:32:18;;;;;;;7.60;4.10;;;;;;;34.08;31.22;101029.56;4929731;29;20050;-78
2022/06/17 11:35:20;;;;;;;9.05;3.33;;;;;;;34.13;31.46;101026.09;4931135;29;20078;-75
2022/06/17 11:38:15;;;;;;;15.15;4.20;;;;;;;34.14;31.24;101022.78;4931378;29;20055;-76
2022/06/17 11:41:01;;;;;;;7.53;3.88;;;;;;;34.08;31.26;101021.88;4935294;29;20067;-74
2022/06/17 11:43:47;;;;;;;5.75;3.30;;;;;;;34.16;31.30;101014.63;4933106;29;20050;-76
2022/06/17 11:46:34;;;;;;;13.30;3.75;;;;;;;34.13;32.19;101017.63;4936251;29;20051;-76
2022/06/17 11:49:20;;;;;;;16.50;3.70;;;;;;;34.05;32.48;101016.34;4935426;29;20055;-75
2022/06/17 11:52:09;;;;;;;6.65;3.63;;;;;;;33.93;31.99;101015.28;4936499;29;20050;-74
2022/06/17 11:54:55;;;;;;;9.65;3.72;;;;;;;33.90;30.66;101014.16;4932191;29;20054;-75
2022/06/17 11:57:41;;;;;;;7.45;3.42;;;;;;;33.96;31.55;101011.50;4948636;28;20047;-74
2022/06/17 12:00:39;;;;;;;8.82;3.58;;;;;;;34.05;30.58;101013.53;4935455;29;20046;-75
2022/06/17 12:03:30;;;;;;;11.82;3.47;;;;;;;34.01;31.26;101019.34;4936040;29;20054;-76
2022/06/17 12:06:44;;;;;;;5.47;3.75;;;;;;;34.02;30.93;101006.00;4935277;29;20054;-77
2022/06/17 12:09:40;;;;;;;8.23;3.38;;;;;;;34.13;30.41;101014.81;4933772;29;20051;-77
2022/06/17 12:12:27;;;;;;;4.90;3.47;;;;;;;34.21;31.14;101011.22;4950142;28;20543;-76
2022/06/17 12:15:38;;;;;;;7.55;3.67;;;;;;;34.36;30.28;101008.53;4934366;29;20535;-78
2022/06/17 12:18:29;;;;;;;9.18;3.55;;;;;;;34.43;30.23;101010.25;4934475;29;20043;-80
2022/06/17 12:21:33;;;;;;;4.45;2.80;;;;;;;34.43;27.54;101005.41;4935055;29;20051;-79
2022/06/17 12:24:24;;;;;;;8.27;3.97;;;;;;;34.31;28.98;101001.47;4934862;29;20054;-81
2022/06/17 12:27:33;;;;;;;12.07;3.70;;;;;;;34.32;29.69;100993.78;4938504;29;20046;-78
2022/06/17 12:30:44;;;;;;;10.38;3.47;;;;;;;34.43;29.35;100994.09;4949867;28;20055;-77
2022/06/17 12:33:41;;;;;;;7.47;3.13;;;;;;;34.42;29.76;100989.69;4933850;29;20393;-77
2022/06/17 12:36:30;;;;;;;8.40;4.15;;;;;;;34.43;29.16;100988.44;4931326;29;20050;-77
2022/06/17 12:39:24;;;;;;;3.90;3.38;;;;;;;34.53;29.05;100981.53;4946122;28;20070;-77
2022/06/17 12:42:25;;;;;;;7.85;3.10;;;;;;;34.57;29.91;100987.78;4936777;29;20059;-77
2022/06/17 12:45:28;;;;;;;7.10;4.32;;;;;;;34.72;29.32;100985.09;4934223;29;20051;-77
2022/06/17 12:48:44;;;;;;;9.43;3.95;;;;;;;34.70;29.41;100976.31;4918032;29;20071;-78
2022/06/17 12:54:54;;;;;;;10.77;3.50;;;;;;;34.75;29.23;100982.09;4944765;28;20059;-77
2022/06/17 12:58:00;;;;;;;5.57;2.97;;;;;;;34.73;28.69;100972.53;4940541;29;20050;-77
2022/06/17 13:00:49;;;;;;;8.48;3.30;;;;;;;34.74;28.36;100972.06;4933154;29;20062;-76
2022/06/17 13:03:46;;;;;;;12.38;4.82;;;;;;;34.74;28.90;100979.78;4933271;29;20055;-78
2022/06/17 13:06:36;;;;;;;7.07;3.50;;;;;;;34.69;29.26;100969.13;4932447;29;20055;-77
2022/06/17 13:09:36;;;;;;;7.35;3.38;;;;;;;34.57;30.84;100972.88;4916955;29;20074;-76
2022/06/17 13:12:34;;;;;;;5.45;3.70;;;;;;;34.43;30.01;100965.84;4917096;29;20520;-77
2022/06/17 13:15:25;;;;;;;10.60;3.90;;;;;;;34.26;31.06;100961.78;4917494;29;20055;-76
2022/06/17 13:18:23;;;;;;;7.10;3.75;;;;;;;34.13;31.50;100955.53;4933817;29;20537;-77
2022/06/17 13:21:33;;;;;;;13.18;4.90;;;;;;;34.10;30.77;100953.63;4935097;28;20051;-77
2022/06/17 13:24:26;;;;;;;16.60;4.53;;;;;;;34.07;29.71;100961.00;4926930;29;20051;-78
2022/06/17 13:27:26;;;;;;;25.17;4.85;;;;;;;34.10;29.68;100957.22;4937643;29;20067;-76
2022/06/17 13:30:22;;;;;;;4.63;3.20;;;;;;;34.08;31.16;100967.44;4935342;29;20051;-78
2022/06/17 13:33:25;;;;;;;6.75;4.07;;;;;;;34.20;30.70;100956.00;4937984;29;20069;-77
2022/06/17 13:36:15;;;;;;;8.30;3.50;;;;;;;34.22;30.14;100955.53;4936154;29;20113;-77
2022/06/17 13:39:21;;;;;;;6.60;3.05;;;;;;;34.22;29.46;100956.31;4937060;29;20432;-78